createdAt,value
2023-02-14T00:00:35.964Z,99.79
2023-02-14T00:03:28.058Z,99.77
2023-02-14T00:06:05.676Z,99.85
2023-02-14T00:08:38.284Z,99.75
2023-02-14T00:11:10.471Z,99.68
2023-02-14T00:14:03.538Z,99.82
2023-02-14T00:16:38.718Z,99.64
2023-02-14T00:19:13.124Z,99.58
2023-02-14T00:21:45.524Z,99.64
2023-02-14T00:24:19.863Z,99.56
2023-02-14T00:26:53.088Z,99.63
2023-02-14T00:29:27.449Z,99.76
2023-02-14T00:32:00.706Z,99.80
2023-02-14T00:34:36.543Z,99.75
2023-02-14T00:37:08.756Z,99.76
2023-02-14T00:39:44.566Z,99.87
2023-02-14T00:42:16.820Z,99.73
2023-02-14T00:44:51.095Z,99.80
2023-02-14T00:47:25.545Z,100.00
2023-02-14T00:50:03.131Z,99.71
2023-02-14T00:52:35.371Z,99.74
2023-02-14T00:55:10.325Z,99.75
2023-02-14T00:57:45.278Z,99.77
2023-02-14T01:00:19.141Z,99.77
2023-02-14T01:02:51.512Z,99.83
2023-02-14T01:05:24.491Z,99.74
2023-02-14T01:07:56.627Z,99.71
2023-02-14T01:10:28.926Z,99.78
2023-02-14T01:13:03.102Z,99.89
2023-02-14T01:15:35.501Z,99.98
2023-02-14T01:18:08.250Z,99.84
2023-02-14T01:20:43.907Z,99.78
2023-02-14T01:23:16.041Z,99.71
2023-02-14T01:25:48.213Z,99.81
2023-02-14T01:28:20.417Z,99.65
2023-02-14T01:30:52.989Z,99.81
2023-02-14T01:33:25.499Z,99.83
2023-02-14T01:36:00.872Z,99.84
2023-02-14T01:38:33.536Z,99.87
2023-02-14T01:41:06.816Z,99.79
2023-02-14T01:44:00.124Z,99.95
2023-02-14T01:46:34.841Z,99.94
2023-02-14T01:49:13.375Z,99.91
2023-02-14T01:51:50.297Z,99.87
2023-02-14T01:54:25.251Z,99.77
2023-02-14T01:57:06.828Z,99.90
2023-02-14T01:59:42.390Z,99.94
2023-02-14T02:02:23.715Z,99.96
2023-02-14T02:04:57.749Z,99.86
2023-02-14T02:07:32.526Z,99.89
2023-02-14T02:10:08.319Z,99.90
2023-02-14T02:12:41.822Z,99.89
2023-02-14T02:15:14.096Z,99.92
2023-02-14T02:17:56.275Z,99.90
2023-02-14T02:20:54.001Z,99.93
2023-02-14T02:24:06.827Z,99.93
2023-02-14T02:27:08.801Z,99.93
2023-02-14T02:30:01.392Z,99.96
2023-02-14T02:33:03.757Z,99.87
2023-02-14T02:35:55.337Z,99.92
2023-02-14T02:38:47.488Z,100.00
2023-02-14T02:41:27.593Z,99.94
2023-02-14T02:44:12.492Z,99.92
2023-02-14T02:46:53.632Z,99.94
2023-02-14T02:49:53.298Z,99.86
2023-02-14T02:52:50.488Z,99.97
2023-02-14T02:55:28.487Z,100.00
2023-02-14T02:58:02.582Z,99.97
2023-02-14T03:00:35.534Z,99.96
2023-02-14T03:03:26.135Z,99.99
2023-02-14T03:06:01.909Z,99.93
2023-02-14T03:08:34.439Z,100.00
2023-02-14T03:11:07.763Z,99.97
2023-02-14T03:14:08.314Z,99.94
2023-02-14T03:17:00.810Z,99.96
2023-02-14T03:20:00.689Z,99.98
2023-02-14T03:22:48.618Z,99.98
2023-02-14T03:25:40.323Z,99.99
2023-02-14T03:28:19.939Z,100.00
2023-02-14T03:31:04.375Z,99.98
2023-02-14T03:33:54.157Z,100.00
2023-02-14T03:36:32.579Z,100.00
2023-02-14T03:39:08.011Z,100.00
2023-02-14T03:41:45.410Z,99.99
2023-02-14T03:44:25.994Z,99.94
2023-02-14T03:47:04.289Z,99.95
2023-02-14T03:49:42.010Z,99.95
2023-02-14T03:52:19.198Z,99.99
2023-02-14T03:54:55.321Z,99.95
2023-02-14T03:57:31.585Z,99.98
2023-02-14T04:00:08.009Z,100.00
2023-02-14T04:02:47.584Z,99.98
2023-02-14T04:05:25.080Z,100.00
2023-02-14T04:08:01.530Z,100.00
2023-02-14T04:10:35.368Z,100.00
2023-02-14T04:13:08.117Z,99.99
2023-02-14T04:15:41.681Z,99.98
2023-02-14T04:18:31.791Z,99.97
2023-02-14T04:21:04.284Z,99.96
2023-02-14T04:23:39.532Z,99.99
2023-02-14T04:26:12.361Z,99.98
2023-02-14T04:28:44.749Z,100.00
2023-02-14T04:31:17.572Z,100.00
2023-02-14T04:33:51.370Z,99.98
2023-02-14T04:36:23.727Z,100.00
2023-02-14T04:38:56.169Z,100.00
2023-02-14T04:41:28.394Z,99.99
2023-02-14T04:44:02.894Z,99.97
2023-02-14T04:46:35.183Z,100.00
2023-02-14T04:49:07.876Z,99.98
2023-02-14T04:51:40.038Z,99.98
2023-02-14T04:54:12.551Z,99.96
2023-02-14T04:56:45.565Z,100.00
2023-02-14T04:59:17.893Z,99.96
2023-02-14T05:01:50.269Z,99.99
2023-02-14T05:04:22.778Z,100.00
2023-02-14T05:06:58.111Z,100.00
2023-02-14T05:09:30.407Z,99.99
2023-02-14T05:12:02.656Z,100.00
2023-02-14T05:14:37.815Z,100.00
2023-02-14T05:17:10.935Z,100.00
2023-02-14T05:19:43.506Z,100.00
2023-02-14T05:22:18.414Z,100.00
2023-02-14T05:24:51.444Z,100.00
2023-02-14T05:27:23.753Z,100.00
2023-02-14T05:29:56.498Z,100.00
2023-02-14T05:32:29.485Z,100.00
2023-02-14T05:35:01.685Z,100.00
2023-02-14T05:37:34.262Z,100.00
2023-02-14T05:40:08.429Z,100.00
2023-02-14T05:42:41.141Z,100.00
2023-02-14T05:45:14.540Z,100.00
2023-02-14T05:47:48.403Z,100.00
2023-02-14T05:50:24.665Z,100.00
2023-02-14T05:52:59.541Z,100.00
2023-02-14T05:55:32.179Z,100.00
2023-02-14T05:58:04.569Z,100.00
2023-02-14T06:00:40.613Z,100.00
2023-02-14T06:03:13.392Z,100.00
2023-02-14T06:05:45.952Z,100.00
2023-02-14T06:08:21.746Z,100.00
2023-02-14T06:10:56.853Z,100.00
2023-02-14T06:13:31.897Z,100.00
2023-02-14T06:16:06.943Z,100.00
2023-02-14T06:18:42.106Z,99.99
2023-02-14T06:21:15.556Z,99.98
2023-02-14T06:23:50.968Z,100.00
2023-02-14T06:26:28.212Z,100.00
2023-02-14T06:29:03.002Z,100.00
2023-02-14T06:31:35.516Z,100.00
2023-02-14T06:34:08.006Z,100.00
2023-02-14T06:36:40.708Z,99.99
2023-02-14T06:39:13.102Z,100.00
2023-02-14T06:41:45.851Z,100.00
2023-02-14T06:44:18.031Z,100.00
2023-02-14T06:46:50.312Z,100.00
2023-02-14T06:49:27.374Z,100.00
2023-02-14T06:51:59.770Z,100.00
2023-02-14T06:54:31.978Z,100.00
2023-02-14T06:57:04.286Z,100.00
2023-02-14T06:59:36.529Z,100.00
2023-02-14T07:02:10.641Z,100.00
2023-02-14T07:04:43.038Z,100.00
2023-02-14T07:07:15.173Z,100.00
2023-02-14T07:09:47.396Z,100.00
2023-02-14T07:12:20.039Z,100.00
2023-02-14T07:14:52.173Z,100.00
2023-02-14T07:17:24.379Z,100.00
2023-02-14T07:19:56.625Z,100.00
2023-02-14T07:22:30.350Z,100.00
2023-02-14T07:25:03.218Z,100.00
2023-02-14T07:27:35.537Z,100.00
2023-02-14T07:30:10.009Z,100.00
2023-02-14T07:32:42.895Z,100.00
2023-02-14T07:35:15.557Z,100.00
2023-02-14T07:37:47.703Z,100.00
2023-02-14T07:40:21.118Z,100.00
2023-02-14T07:42:57.885Z,100.00
2023-02-14T07:45:30.435Z,100.00
2023-02-14T07:48:06.067Z,100.00
2023-02-14T07:50:39.450Z,100.00
2023-02-14T07:53:11.719Z,100.00
2023-02-14T07:55:44.418Z,100.00
2023-02-14T07:58:16.627Z,100.00
2023-02-14T08:00:49.797Z,100.00
2023-02-14T08:03:22.050Z,100.00
2023-02-14T08:05:58.506Z,100.00
2023-02-14T08:08:32.740Z,100.00
2023-02-14T08:11:11.287Z,100.00
2023-02-14T08:13:43.506Z,100.00
2023-02-14T08:16:15.659Z,100.00
2023-02-14T08:18:48.185Z,100.00
2023-02-14T08:21:20.835Z,100.00
2023-02-14T08:23:52.947Z,100.00
2023-02-14T08:26:25.688Z,99.99
2023-02-14T08:28:57.852Z,99.96
2023-02-14T08:31:36.576Z,99.93
2023-02-14T08:34:09.564Z,99.87
2023-02-14T08:36:41.853Z,99.98
2023-02-14T08:39:16.546Z,100.00
2023-02-14T08:41:48.776Z,99.90
2023-02-14T08:44:21.846Z,99.85
2023-02-14T08:46:54.471Z,99.91
2023-02-14T08:49:27.012Z,99.88
2023-02-14T08:51:59.183Z,99.51
2023-02-14T08:54:31.344Z,99.50
2023-02-14T08:57:07.013Z,99.60
2023-02-14T08:59:39.317Z,99.24
2023-02-14T09:02:16.362Z,99.15
2023-02-14T09:04:48.601Z,99.20
2023-02-14T09:07:20.832Z,99.48
2023-02-14T09:09:54.184Z,99.11
2023-02-14T09:12:35.862Z,99.23
2023-02-14T09:15:09.891Z,99.43
2023-02-14T09:17:41.965Z,99.15
2023-02-14T09:20:16.707Z,99.22
2023-02-14T09:22:49.038Z,99.11
2023-02-14T09:25:21.904Z,98.77
2023-02-14T09:27:54.264Z,98.84
2023-02-14T09:30:26.458Z,98.61
2023-02-14T09:33:00.413Z,98.74
2023-02-14T09:35:32.606Z,98.58
2023-02-14T09:38:20.020Z,98.31
2023-02-14T09:40:52.159Z,98.72
2023-02-14T09:43:32.157Z,98.38
2023-02-14T09:46:06.237Z,98.28
2023-02-14T09:48:43.894Z,97.95
2023-02-14T09:51:20.367Z,98.09
2023-02-14T09:53:58.260Z,98.00
2023-02-14T09:56:50.723Z,97.54
2023-02-14T09:59:30.453Z,97.48
2023-02-14T10:02:24.988Z,97.74
2023-02-14T10:05:07.918Z,97.53
2023-02-14T10:07:41.748Z,96.67
2023-02-14T10:10:20.908Z,96.90
2023-02-14T10:13:01.029Z,97.04
2023-02-14T10:15:39.537Z,96.49
2023-02-14T10:18:15.925Z,96.88
2023-02-14T10:20:53.841Z,96.93
2023-02-14T10:23:39.186Z,97.20
2023-02-14T10:26:19.021Z,97.11
2023-02-14T10:28:52.057Z,96.51
2023-02-14T10:31:27.756Z,96.39
2023-02-14T10:34:05.950Z,95.90
2023-02-14T10:36:54.028Z,95.99
2023-02-14T10:39:43.914Z,96.29
2023-02-14T10:42:26.386Z,96.06
2023-02-14T10:45:10.680Z,96.36
2023-02-14T10:47:51.706Z,96.35
2023-02-14T10:50:30.082Z,96.08
2023-02-14T10:53:14.478Z,96.10
2023-02-14T10:55:55.078Z,95.06
2023-02-14T10:58:32.682Z,95.39
2023-02-14T11:01:08.354Z,95.73
2023-02-14T11:03:44.259Z,95.90
2023-02-14T11:06:17.210Z,96.13
2023-02-14T11:08:49.312Z,95.88
2023-02-14T11:11:26.812Z,95.72
2023-02-14T11:16:58.007Z,95.44
2023-02-14T11:19:37.224Z,95.35
2023-02-14T11:22:10.365Z,95.19
2023-02-14T11:24:43.074Z,95.09
2023-02-14T11:27:21.434Z,95.11
2023-02-14T11:29:54.745Z,95.07
2023-02-14T11:32:29.016Z,95.10
2023-02-14T11:35:09.709Z,95.04
2023-02-14T11:37:59.401Z,94.65
2023-02-14T11:40:34.751Z,94.52
2023-02-14T11:43:21.812Z,94.55
2023-02-14T11:46:08.339Z,94.86
2023-02-14T11:48:40.777Z,94.77
2023-02-14T11:51:14.858Z,94.84
2023-02-14T11:53:52.232Z,94.72
2023-02-14T11:56:25.683Z,94.41
2023-02-14T11:59:03.057Z,94.37
2023-02-14T12:01:38.727Z,93.81
2023-02-14T12:04:18.881Z,93.39
2023-02-14T12:06:51.114Z,93.49
2023-02-14T12:09:31.583Z,93.66
2023-02-14T12:12:15.881Z,93.14
2023-02-14T12:14:48.429Z,93.49
2023-02-14T12:17:35.572Z,93.57
2023-02-14T12:20:15.464Z,93.84
2023-02-14T12:22:54.827Z,93.92
2023-02-14T12:25:29.901Z,93.36
2023-02-14T12:28:07.698Z,92.77
2023-02-14T12:30:40.031Z,93.20
2023-02-14T12:33:20.508Z,93.40
2023-02-14T12:36:03.285Z,93.11
2023-02-14T12:38:47.185Z,93.21
2023-02-14T12:41:36.095Z,92.99
2023-02-14T12:44:16.018Z,93.47
2023-02-14T12:47:29.818Z,93.20
2023-02-14T12:50:25.809Z,92.12
2023-02-14T12:53:29.125Z,92.39
2023-02-14T12:56:08.409Z,91.99
2023-02-14T12:58:58.638Z,91.77
2023-02-14T13:01:54.079Z,92.10
2023-02-14T13:05:03.244Z,92.43
2023-02-14T13:07:57.985Z,92.58
2023-02-14T13:10:47.923Z,92.26
2023-02-14T13:13:31.999Z,92.13
2023-02-14T13:16:14.027Z,92.29
2023-02-14T13:18:54.625Z,92.52
2023-02-14T13:21:26.453Z,92.45
2023-02-14T13:24:07.815Z,92.10
2023-02-14T13:26:45.285Z,91.60
2023-02-14T13:29:23.636Z,91.40
2023-02-14T13:32:01.438Z,91.21
2023-02-14T13:34:38.076Z,91.07
2023-02-14T13:37:14.751Z,91.10
2023-02-14T13:39:50.679Z,90.20
2023-02-14T13:42:53.755Z,90.86
2023-02-14T13:45:54.375Z,91.31
2023-02-14T13:48:29.326Z,90.66
2023-02-14T13:51:04.291Z,90.77
2023-02-14T13:53:40.592Z,90.91
2023-02-14T13:56:35.055Z,90.53
2023-02-14T13:59:25.336Z,90.63
2023-02-14T14:02:18.149Z,89.44
2023-02-14T14:04:50.514Z,89.92
2023-02-14T14:07:27.305Z,90.05
2023-02-14T14:10:04.788Z,89.89
2023-02-14T14:12:52.113Z,90.40
2023-02-14T14:15:25.656Z,90.03
2023-02-14T14:18:28.383Z,89.80
2023-02-14T14:21:00.547Z,90.15
2023-02-14T14:23:38.708Z,90.30
2023-02-14T14:26:36.312Z,90.22
2023-02-14T14:29:17.628Z,90.19
2023-02-14T14:31:55.842Z,90.29
2023-02-14T14:34:29.548Z,90.55
2023-02-14T14:37:16.890Z,90.33
2023-02-14T14:39:53.958Z,90.23
2023-02-14T14:42:27.966Z,89.90
2023-02-14T14:45:03.822Z,89.91
2023-02-14T14:47:42.972Z,90.09
2023-02-14T14:50:23.073Z,90.26
2023-02-14T14:53:00.782Z,90.24
2023-02-14T14:55:37.440Z,90.26
2023-02-14T14:58:30.524Z,89.62
2023-02-14T15:01:03.078Z,89.02
2023-02-14T15:03:35.980Z,89.53
2023-02-14T15:06:17.051Z,89.59
2023-02-14T15:08:51.630Z,89.19
2023-02-14T15:11:45.745Z,89.19
2023-02-14T15:14:24.044Z,89.37
2023-02-14T15:17:00.218Z,89.51
2023-02-14T15:19:37.355Z,89.47
2023-02-14T15:22:20.088Z,89.44
2023-02-14T15:24:53.261Z,89.74
2023-02-14T15:27:28.431Z,89.96
2023-02-14T15:30:06.749Z,89.91
2023-02-14T15:32:40.418Z,89.97
2023-02-14T15:35:18.974Z,89.65
2023-02-14T15:37:54.260Z,89.89
2023-02-14T15:40:29.692Z,90.07
2023-02-14T15:43:22.103Z,90.13
2023-02-14T15:45:58.437Z,90.09
2023-02-14T15:48:34.424Z,89.99
2023-02-14T15:51:06.931Z,89.79
2023-02-14T15:53:45.851Z,89.97
2023-02-14T15:56:25.169Z,90.03
2023-02-14T15:59:03.061Z,89.85
2023-02-14T16:01:38.695Z,89.84
2023-02-14T16:04:12.128Z,89.74
2023-02-14T16:06:50.209Z,89.69
2023-02-14T16:09:30.451Z,89.79
2023-02-14T16:12:12.491Z,89.63
2023-02-14T16:14:46.693Z,89.82
2023-02-14T16:17:35.378Z,89.83
2023-02-14T16:20:27.388Z,89.78
2023-02-14T16:23:27.051Z,89.75
2023-02-14T16:25:59.258Z,89.73
2023-02-14T16:28:36.906Z,89.62
2023-02-14T16:31:14.699Z,89.60
2023-02-14T16:33:47.032Z,89.62
2023-02-14T16:36:23.932Z,89.79
2023-02-14T16:38:57.268Z,89.76
2023-02-14T16:41:31.071Z,89.83
2023-02-14T16:44:03.728Z,89.85
2023-02-14T16:46:38.087Z,89.89
2023-02-14T16:49:10.339Z,90.06
2023-02-14T16:51:45.714Z,89.76
2023-02-14T16:54:22.761Z,89.51
2023-02-14T16:56:58.584Z,89.66
2023-02-14T16:59:31.662Z,89.74
2023-02-14T17:02:04.220Z,89.92
2023-02-14T17:04:38.528Z,89.96
2023-02-14T17:07:11.181Z,90.04
2023-02-14T17:09:47.094Z,89.94
2023-02-14T17:12:28.462Z,89.58
2023-02-14T17:15:06.997Z,89.94
2023-02-14T17:17:40.375Z,89.93
2023-02-14T17:20:14.480Z,89.92
2023-02-14T17:22:47.084Z,89.98
2023-02-14T17:25:19.412Z,90.18
2023-02-14T17:27:51.712Z,90.09
2023-02-14T17:30:24.305Z,90.09
2023-02-14T17:32:56.609Z,90.00
2023-02-14T17:35:30.203Z,89.59
2023-02-14T17:38:02.738Z,89.98
2023-02-14T17:40:35.207Z,90.09
2023-02-14T17:43:07.562Z,89.91
2023-02-14T17:45:41.029Z,90.13
2023-02-14T17:48:13.508Z,90.14
2023-02-14T17:50:46.354Z,90.28
2023-02-14T17:53:19.055Z,90.25
2023-02-14T17:55:52.807Z,90.26
2023-02-14T17:58:25.277Z,90.18
2023-02-14T18:01:02.252Z,90.11
2023-02-14T18:03:35.124Z,90.13
2023-02-14T18:06:11.223Z,90.02
2023-02-14T18:08:50.566Z,90.16
2023-02-14T18:11:25.921Z,90.20
2023-02-14T18:13:59.734Z,90.07
2023-02-14T18:16:32.151Z,90.18
2023-02-14T18:19:06.983Z,90.21
2023-02-14T18:21:41.450Z,90.04
2023-02-14T18:24:15.972Z,90.01
2023-02-14T18:26:48.602Z,90.07
2023-02-14T18:29:21.373Z,90.08
2023-02-14T18:31:54.039Z,90.25
2023-02-14T18:34:26.731Z,90.28
2023-02-14T18:37:00.120Z,90.36
2023-02-14T18:39:33.669Z,90.23
2023-02-14T18:42:06.050Z,90.15
2023-02-14T18:44:38.495Z,90.14
2023-02-14T18:47:14.341Z,90.04
2023-02-14T18:49:48.222Z,90.09
2023-02-14T18:52:21.091Z,90.11
2023-02-14T18:54:53.399Z,90.37
2023-02-14T18:57:26.115Z,90.40
2023-02-14T18:59:58.354Z,90.16
2023-02-14T19:02:30.578Z,90.14
2023-02-14T19:05:04.314Z,90.30
2023-02-14T19:07:36.845Z,90.51
2023-02-14T19:10:11.605Z,90.14
2023-02-14T19:12:44.154Z,90.19
2023-02-14T19:15:16.424Z,89.99
2023-02-14T19:17:48.852Z,90.05
2023-02-14T19:20:22.472Z,90.34
2023-02-14T19:22:54.675Z,90.30
2023-02-14T19:25:29.517Z,90.49
2023-02-14T19:28:01.873Z,90.33
2023-02-14T19:30:34.729Z,90.08
2023-02-14T19:33:07.091Z,90.10
2023-02-14T19:35:39.420Z,89.95
2023-02-14T19:38:12.071Z,89.97
2023-02-14T19:40:47.679Z,90.09
2023-02-14T19:43:20.133Z,90.01
2023-02-14T19:45:52.451Z,90.17
2023-02-14T19:48:25.260Z,90.05
2023-02-14T19:51:00.685Z,90.23
2023-02-14T19:53:33.581Z,90.27
2023-02-14T19:56:06.441Z,90.16
2023-02-14T19:58:38.852Z,90.38
2023-02-14T20:01:23.316Z,90.21
2023-02-14T20:03:55.976Z,90.21
2023-02-14T20:06:30.414Z,90.02
2023-02-14T20:09:02.803Z,90.18
2023-02-14T20:11:39.041Z,90.01
2023-02-14T20:14:11.586Z,90.02
2023-02-14T20:16:43.862Z,90.03
2023-02-14T20:19:19.212Z,89.99
2023-02-14T20:21:52.806Z,89.82
2023-02-14T20:24:26.873Z,89.78
2023-02-14T20:27:00.536Z,89.85
2023-02-14T20:29:33.276Z,90.14
2023-02-14T20:32:05.988Z,89.83
2023-02-14T20:34:38.412Z,89.82
2023-02-14T20:37:11.185Z,89.77
2023-02-14T20:39:43.556Z,89.71
2023-02-14T20:42:15.815Z,89.65
2023-02-14T20:44:48.594Z,89.61
2023-02-14T20:47:20.966Z,89.60
2023-02-14T20:49:53.396Z,89.83
2023-02-14T20:52:27.293Z,89.84
2023-02-14T20:54:59.503Z,89.91
2023-02-14T20:57:33.082Z,89.77
2023-02-14T21:00:06.151Z,89.81
2023-02-14T21:02:39.781Z,89.71
2023-02-14T21:05:18.874Z,89.80
2023-02-14T21:07:51.247Z,89.66
2023-02-14T21:10:23.818Z,89.92
2023-02-14T21:12:56.502Z,89.93
2023-02-14T21:15:31.575Z,89.80
2023-02-14T21:18:06.613Z,89.95
2023-02-14T21:20:38.900Z,89.93
2023-02-14T21:23:11.573Z,89.63
2023-02-14T21:25:43.816Z,89.87
2023-02-14T21:28:16.320Z,90.07
2023-02-14T21:30:49.140Z,90.21
2023-02-14T21:33:21.764Z,90.22
2023-02-14T21:35:55.296Z,90.32
2023-02-14T21:38:29.029Z,90.06
2023-02-14T21:41:06.461Z,89.73
2023-02-14T21:43:40.384Z,90.01
2023-02-14T21:46:14.062Z,90.08
2023-02-14T21:49:04.319Z,90.00
2023-02-14T21:51:36.627Z,89.90
2023-02-14T21:54:10.399Z,90.00
2023-02-14T21:56:43.117Z,90.04
2023-02-14T21:59:15.584Z,89.85
2023-02-14T22:01:47.818Z,89.72
2023-02-14T22:04:20.546Z,89.84
2023-02-14T22:06:53.640Z,89.77
2023-02-14T22:09:27.822Z,89.92
2023-02-14T22:12:00.050Z,90.01
2023-02-14T22:14:32.689Z,90.01
2023-02-14T22:17:07.057Z,89.92
2023-02-14T22:19:39.364Z,90.09
2023-02-14T22:22:11.673Z,90.05
2023-02-14T22:24:43.848Z,90.01
2023-02-14T22:27:17.421Z,90.22
2023-02-14T22:29:49.638Z,89.99
2023-02-14T22:32:21.965Z,89.86
2023-02-14T22:34:55.078Z,90.04
2023-02-14T22:37:30.332Z,89.91
2023-02-14T22:40:02.608Z,90.12
2023-02-14T22:42:35.428Z,89.91
2023-02-14T22:45:08.926Z,89.79
2023-02-14T22:47:41.239Z,89.82
2023-02-14T22:50:13.912Z,90.09
2023-02-14T22:52:46.151Z,90.05
2023-02-14T22:55:19.234Z,90.19
2023-02-14T22:57:51.491Z,90.12
2023-02-14T23:00:24.328Z,90.16
2023-02-14T23:02:56.542Z,89.87
2023-02-14T23:05:28.785Z,89.64
2023-02-14T23:08:02.353Z,89.67
2023-02-14T23:10:34.862Z,90.04
2023-02-14T23:13:28.549Z,90.20
2023-02-14T23:16:18.939Z,90.23
2023-02-14T23:19:09.047Z,90.12
2023-02-14T23:21:56.689Z,90.07
2023-02-14T23:24:29.054Z,90.23
2023-02-14T23:27:01.366Z,90.33
2023-02-14T23:29:34.326Z,90.11
2023-02-14T23:32:07.868Z,90.33
2023-02-14T23:34:42.130Z,90.26
2023-02-14T23:37:14.897Z,90.39
2023-02-14T23:39:47.160Z,90.46
2023-02-14T23:42:21.479Z,90.47
2023-02-14T23:44:53.805Z,90.45
2023-02-14T23:47:29.557Z,90.60
2023-02-14T23:50:03.150Z,90.57
2023-02-14T23:52:37.584Z,90.56
2023-02-14T23:55:13.680Z,90.64
2023-02-14T23:57:46.170Z,90.66
